sensor_id;sensor_type;location;lat;lon;timestamp;temperature;humidity
45579;DHT22;31293;51.390;12.254;2022-07-05T00:01:38;14.10;99.90
45579;DHT22;31293;51.390;12.254;2022-07-05T00:03:40;14.10;99.90
45579;DHT22;31293;51.390;12.254;2022-07-05T00:05:42;14.00;99.90
45579;DHT22;31293;51.390;12.254;2022-07-05T00:07:44;14.00;99.90
45579;DHT22;31293;51.390;12.254;2022-07-05T00:11:48;13.90;99.90
45579;DHT22;31293;51.390;12.254;2022-07-05T00:13:50;13.80;99.90
45579;DHT22;31293;51.390;12.254;2022-07-05T00:15:52;13.80;99.90
45579;DHT22;31293;51.390;12.254;2022-07-05T00:17:54;13.80;99.90
45579;DHT22;31293;51.390;12.254;2022-07-05T00:19:55;13.80;99.90
45579;DHT22;31293;51.390;12.254;2022-07-05T00:21:57;13.80;99.90
45579;DHT22;31293;51.390;12.254;2022-07-05T00:23:59;13.70;99.90
45579;DHT22;31293;51.390;12.254;2022-07-05T00:26:00;13.60;99.90
45579;DHT22;31293;51.390;12.254;2022-07-05T00:28:02;13.60;99.90
45579;DHT22;31293;51.390;12.254;2022-07-05T00:30:06;13.60;99.90
45579;DHT22;31293;51.390;12.254;2022-07-05T00:32:08;13.60;99.90
45579;DHT22;31293;51.390;12.254;2022-07-05T00:34:10;13.60;99.90
45579;DHT22;31293;51.390;12.254;2022-07-05T00:36:11;13.50;99.90
45579;DHT22;31293;51.390;12.254;2022-07-05T00:38:13;13.40;99.90
45579;DHT22;31293;51.390;12.254;2022-07-05T00:40:15;13.40;99.90
45579;DHT22;31293;51.390;12.254;2022-07-05T00:42:17;13.40;99.90
45579;DHT22;31293;51.390;12.254;2022-07-05T00:44:29;13.30;99.90
45579;DHT22;31293;51.390;12.254;2022-07-05T00:46:32;13.30;99.90
45579;DHT22;31293;51.390;12.254;2022-07-05T00:48:34;13.30;99.90
45579;DHT22;31293;51.390;12.254;2022-07-05T00:50:35;13.30;99.90
45579;DHT22;31293;51.390;12.254;2022-07-05T00:52:40;13.20;99.90
45579;DHT22;31293;51.390;12.254;2022-07-05T00:54:42;13.10;99.90
45579;DHT22;31293;51.390;12.254;2022-07-05T00:56:44;13.20;99.90
45579;DHT22;31293;51.390;12.254;2022-07-05T00:58:46;13.10;99.90
45579;DHT22;31293;51.390;12.254;2022-07-05T01:00:48;13.10;99.90
45579;DHT22;31293;51.390;12.254;2022-07-05T01:02:50;13.10;99.90
45579;DHT22;31293;51.390;12.254;2022-07-05T01:04:52;13.00;99.90
45579;DHT22;31293;51.390;12.254;2022-07-05T01:06:54;13.00;99.90
45579;DHT22;31293;51.390;12.254;2022-07-05T01:08:56;13.00;99.90
45579;DHT22;31293;51.390;12.254;2022-07-05T01:10:58;12.90;99.90
45579;DHT22;31293;51.390;12.254;2022-07-05T01:12:59;12.90;99.90
45579;DHT22;31293;51.390;12.254;2022-07-05T01:15:02;12.80;99.90
45579;DHT22;31293;51.390;12.254;2022-07-05T01:17:04;12.80;99.90
45579;DHT22;31293;51.390;12.254;2022-07-05T01:19:07;12.80;99.90
45579;DHT22;31293;51.390;12.254;2022-07-05T01:21:12;12.80;99.90
45579;DHT22;31293;51.390;12.254;2022-07-05T01:23:17;12.80;99.90
45579;DHT22;31293;51.390;12.254;2022-07-05T01:25:20;12.70;99.90
45579;DHT22;31293;51.390;12.254;2022-07-05T01:27:22;12.70;99.90
45579;DHT22;31293;51.390;12.254;2022-07-05T01:29:24;12.80;99.90
45579;DHT22;31293;51.390;12.254;2022-07-05T01:31:25;12.80;99.90
45579;DHT22;31293;51.390;12.254;2022-07-05T01:33:28;12.70;99.90
45579;DHT22;31293;51.390;12.254;2022-07-05T01:35:30;12.70;99.90
45579;DHT22;31293;51.390;12.254;2022-07-05T01:37:32;12.60;99.90
45579;DHT22;31293;51.390;12.254;2022-07-05T01:39:34;12.60;99.90
45579;DHT22;31293;51.390;12.254;2022-07-05T01:41:36;12.50;99.90
45579;DHT22;31293;51.390;12.254;2022-07-05T01:43:38;12.50;99.90
45579;DHT22;31293;51.390;12.254;2022-07-05T01:45:40;12.50;99.90
45579;DHT22;31293;51.390;12.254;2022-07-05T01:47:44;12.50;99.90
45579;DHT22;31293;51.390;12.254;2022-07-05T01:49:49;12.40;99.90
45579;DHT22;31293;51.390;12.254;2022-07-05T01:51:58;12.30;99.90
45579;DHT22;31293;51.390;12.254;2022-07-05T01:54:02;12.30;99.90
45579;DHT22;31293;51.390;12.254;2022-07-05T01:56:04;12.30;99.90
45579;DHT22;31293;51.390;12.254;2022-07-05T01:58:06;12.30;99.90
45579;DHT22;31293;51.390;12.254;2022-07-05T02:00:09;12.20;99.90
45579;DHT22;31293;51.390;12.254;2022-07-05T02:02:11;12.20;99.90
45579;DHT22;31293;51.390;12.254;2022-07-05T02:04:13;12.20;99.90
45579;DHT22;31293;51.390;12.254;2022-07-05T02:06:14;12.20;99.90
45579;DHT22;31293;51.390;12.254;2022-07-05T02:08:17;12.20;99.90
45579;DHT22;31293;51.390;12.254;2022-07-05T02:10:19;12.10;99.90
45579;DHT22;31293;51.390;12.254;2022-07-05T02:12:20;12.10;99.90
45579;DHT22;31293;51.390;12.254;2022-07-05T02:14:22;12.10;99.90
45579;DHT22;31293;51.390;12.254;2022-07-05T02:16:25;12.20;99.90
45579;DHT22;31293;51.390;12.254;2022-07-05T02:18:27;12.10;99.90
45579;DHT22;31293;51.390;12.254;2022-07-05T02:20:30;12.20;99.90
45579;DHT22;31293;51.390;12.254;2022-07-05T02:22:32;12.20;99.90
45579;DHT22;31293;51.390;12.254;2022-07-05T02:24:35;12.10;99.90
45579;DHT22;31293;51.390;12.254;2022-07-05T02:26:36;12.10;99.90
45579;DHT22;31293;51.390;12.254;2022-07-05T02:28:39;12.00;99.90
45579;DHT22;31293;51.390;12.254;2022-07-05T02:30:40;12.00;99.90
45579;DHT22;31293;51.390;12.254;2022-07-05T02:32:42;12.00;99.90
45579;DHT22;31293;51.390;12.254;2022-07-05T02:34:44;12.00;99.90
45579;DHT22;31293;51.390;12.254;2022-07-05T02:36:46;11.90;99.90
45579;DHT22;31293;51.390;12.254;2022-07-05T02:38:48;11.90;99.90
45579;DHT22;31293;51.390;12.254;2022-07-05T02:40:49;11.90;99.90
45579;DHT22;31293;51.390;12.254;2022-07-05T02:42:51;11.90;99.90
45579;DHT22;31293;51.390;12.254;2022-07-05T02:44:53;11.90;99.90
45579;DHT22;31293;51.390;12.254;2022-07-05T02:46:54;11.90;99.90
45579;DHT22;31293;51.390;12.254;2022-07-05T02:48:56;11.90;99.90
45579;DHT22;31293;51.390;12.254;2022-07-05T02:50:59;12.00;99.90
45579;DHT22;31293;51.390;12.254;2022-07-05T02:53:01;12.00;99.90
45579;DHT22;31293;51.390;12.254;2022-07-05T02:55:04;11.90;99.90
45579;DHT22;31293;51.390;12.254;2022-07-05T02:57:06;11.90;99.90
45579;DHT22;31293;51.390;12.254;2022-07-05T02:59:08;12.00;99.90
45579;DHT22;31293;51.390;12.254;2022-07-05T03:01:09;12.00;99.90
45579;DHT22;31293;51.390;12.254;2022-07-05T03:03:11;12.00;99.90
45579;DHT22;31293;51.390;12.254;2022-07-05T03:05:13;12.00;99.90
45579;DHT22;31293;51.390;12.254;2022-07-05T03:07:15;12.30;99.90
45579;DHT22;31293;51.390;12.254;2022-07-05T03:09:16;12.40;99.90
45579;DHT22;31293;51.390;12.254;2022-07-05T03:11:18;12.50;99.90
45579;DHT22;31293;51.390;12.254;2022-07-05T03:13:21;12.40;99.90
45579;DHT22;31293;51.390;12.254;2022-07-05T03:15:23;12.40;99.90
45579;DHT22;31293;51.390;12.254;2022-07-05T03:17:25;12.40;99.90
45579;DHT22;31293;51.390;12.254;2022-07-05T03:19:26;12.30;99.90
45579;DHT22;31293;51.390;12.254;2022-07-05T03:21:28;12.30;99.90
45579;DHT22;31293;51.390;12.254;2022-07-05T03:23:29;12.30;99.90
45579;DHT22;31293;51.390;12.254;2022-07-05T03:25:31;12.30;99.90
45579;DHT22;31293;51.390;12.254;2022-07-05T03:27:33;12.20;99.90
45579;DHT22;31293;51.390;12.254;2022-07-05T03:29:35;12.30;99.90
45579;DHT22;31293;51.390;12.254;2022-07-05T03:31:36;12.20;99.90
45579;DHT22;31293;51.390;12.254;2022-07-05T03:33:38;12.30;99.90
45579;DHT22;31293;51.390;12.254;2022-07-05T03:35:40;12.40;99.90
45579;DHT22;31293;51.390;12.254;2022-07-05T03:37:41;12.50;99.90
45579;DHT22;31293;51.390;12.254;2022-07-05T03:39:43;12.40;99.90
45579;DHT22;31293;51.390;12.254;2022-07-05T03:41:45;12.40;99.90
45579;DHT22;31293;51.390;12.254;2022-07-05T03:43:47;12.50;99.90
45579;DHT22;31293;51.390;12.254;2022-07-05T03:45:48;12.60;99.90
45579;DHT22;31293;51.390;12.254;2022-07-05T03:47:50;12.60;99.90
45579;DHT22;31293;51.390;12.254;2022-07-05T03:49:53;12.50;99.90
45579;DHT22;31293;51.390;12.254;2022-07-05T03:51:55;12.60;99.90
45579;DHT22;31293;51.390;12.254;2022-07-05T03:53:56;12.70;99.90
45579;DHT22;31293;51.390;12.254;2022-07-05T03:55:58;13.00;99.90
45579;DHT22;31293;51.390;12.254;2022-07-05T03:58:00;13.20;99.90
45579;DHT22;31293;51.390;12.254;2022-07-05T04:00:02;13.30;99.90
45579;DHT22;31293;51.390;12.254;2022-07-05T04:02:04;13.40;99.90
45579;DHT22;31293;51.390;12.254;2022-07-05T04:04:05;13.50;99.90
45579;DHT22;31293;51.390;12.254;2022-07-05T04:06:09;13.50;99.90
45579;DHT22;31293;51.390;12.254;2022-07-05T04:08:10;13.50;99.90
45579;DHT22;31293;51.390;12.254;2022-07-05T04:10:12;13.60;99.90
45579;DHT22;31293;51.390;12.254;2022-07-05T04:12:14;13.60;99.90
45579;DHT22;31293;51.390;12.254;2022-07-05T04:14:15;13.70;99.90
45579;DHT22;31293;51.390;12.254;2022-07-05T04:16:17;13.80;99.90
45579;DHT22;31293;51.390;12.254;2022-07-05T04:18:19;13.80;99.90
45579;DHT22;31293;51.390;12.254;2022-07-05T04:20:22;13.80;99.90
45579;DHT22;31293;51.390;12.254;2022-07-05T04:22:24;13.90;99.90
45579;DHT22;31293;51.390;12.254;2022-07-05T04:24:25;13.90;99.90
45579;DHT22;31293;51.390;12.254;2022-07-05T04:26:27;13.90;99.90
45579;DHT22;31293;51.390;12.254;2022-07-05T04:28:29;14.00;99.90
45579;DHT22;31293;51.390;12.254;2022-07-05T04:30:33;14.00;99.90
45579;DHT22;31293;51.390;12.254;2022-07-05T04:32:35;14.10;99.90
45579;DHT22;31293;51.390;12.254;2022-07-05T04:34:36;14.20;99.90
45579;DHT22;31293;51.390;12.254;2022-07-05T04:36:38;14.20;99.90
45579;DHT22;31293;51.390;12.254;2022-07-05T04:38:41;14.30;99.90
45579;DHT22;31293;51.390;12.254;2022-07-05T04:40:43;14.40;99.90
45579;DHT22;31293;51.390;12.254;2022-07-05T04:42:45;14.60;99.90
45579;DHT22;31293;51.390;12.254;2022-07-05T04:44:46;14.60;99.90
45579;DHT22;31293;51.390;12.254;2022-07-05T04:46:48;14.60;99.90
45579;DHT22;31293;51.390;12.254;2022-07-05T04:48:50;14.70;99.90
45579;DHT22;31293;51.390;12.254;2022-07-05T04:50:52;14.80;99.90
45579;DHT22;31293;51.390;12.254;2022-07-05T04:52:54;14.90;99.90
45579;DHT22;31293;51.390;12.254;2022-07-05T04:54:55;15.10;99.90
45579;DHT22;31293;51.390;12.254;2022-07-05T04:56:57;15.30;99.90
45579;DHT22;31293;51.390;12.254;2022-07-05T04:58:59;15.50;99.90
45579;DHT22;31293;51.390;12.254;2022-07-05T05:01:01;15.80;99.90
45579;DHT22;31293;51.390;12.254;2022-07-05T05:03:02;16.00;99.90
45579;DHT22;31293;51.390;12.254;2022-07-05T05:05:04;16.30;98.90
45579;DHT22;31293;51.390;12.254;2022-07-05T05:07:06;16.60;98.60
45579;DHT22;31293;51.390;12.254;2022-07-05T05:09:08;17.10;96.40
45579;DHT22;31293;51.390;12.254;2022-07-05T05:11:09;17.40;95.60
45579;DHT22;31293;51.390;12.254;2022-07-05T05:13:11;17.70;94.50
45579;DHT22;31293;51.390;12.254;2022-07-05T05:15:13;18.20;93.60
45579;DHT22;31293;51.390;12.254;2022-07-05T05:17:15;18.50;92.20
45579;DHT22;31293;51.390;12.254;2022-07-05T05:19:16;18.80;91.10
45579;DHT22;31293;51.390;12.254;2022-07-05T05:21:18;18.90;90.40
45579;DHT22;31293;51.390;12.254;2022-07-05T05:23:20;18.80;90.30
45579;DHT22;31293;51.390;12.254;2022-07-05T05:25:22;19.30;89.10
45579;DHT22;31293;51.390;12.254;2022-07-05T05:27:24;19.50;86.70
45579;DHT22;31293;51.390;12.254;2022-07-05T05:29:26;19.70;86.50
45579;DHT22;31293;51.390;12.254;2022-07-05T05:31:28;19.60;85.40
45579;DHT22;31293;51.390;12.254;2022-07-05T05:33:30;19.80;85.30
45579;DHT22;31293;51.390;12.254;2022-07-05T05:35:32;20.20;83.30
45579;DHT22;31293;51.390;12.254;2022-07-05T05:37:47;20.40;82.00
45579;DHT22;31293;51.390;12.254;2022-07-05T05:39:49;20.60;81.00
45579;DHT22;31293;51.390;12.254;2022-07-05T05:41:51;20.40;81.40
45579;DHT22;31293;51.390;12.254;2022-07-05T05:43:53;20.70;79.50
45579;DHT22;31293;51.390;12.254;2022-07-05T05:45:55;21.00;79.40
45579;DHT22;31293;51.390;12.254;2022-07-05T05:47:58;21.10;78.00
45579;DHT22;31293;51.390;12.254;2022-07-05T05:50:00;21.10;77.30
45579;DHT22;31293;51.390;12.254;2022-07-05T05:52:02;20.70;79.00
45579;DHT22;31293;51.390;12.254;2022-07-05T05:54:03;21.10;79.00
45579;DHT22;31293;51.390;12.254;2022-07-05T05:56:05;21.30;77.60
45579;DHT22;31293;51.390;12.254;2022-07-05T05:58:17;21.30;76.50
45579;DHT22;31293;51.390;12.254;2022-07-05T06:00:21;21.40;77.10
45579;DHT22;31293;51.390;12.254;2022-07-05T06:02:23;21.30;75.70
45579;DHT22;31293;51.390;12.254;2022-07-05T06:06:27;22.50;73.00
45579;DHT22;31293;51.390;12.254;2022-07-05T06:08:29;22.80;71.90
45579;DHT22;31293;51.390;12.254;2022-07-05T06:10:32;22.90;70.70
45579;DHT22;31293;51.390;12.254;2022-07-05T06:12:34;22.70;70.40
45579;DHT22;31293;51.390;12.254;2022-07-05T06:14:36;23.10;69.50
45579;DHT22;31293;51.390;12.254;2022-07-05T06:16:38;23.10;69.30
45579;DHT22;31293;51.390;12.254;2022-07-05T06:18:39;23.60;70.80
45579;DHT22;31293;51.390;12.254;2022-07-05T06:20:41;23.60;68.40
45579;DHT22;31293;51.390;12.254;2022-07-05T06:22:43;23.60;68.00
45579;DHT22;31293;51.390;12.254;2022-07-05T06:24:45;23.90;67.10
45579;DHT22;31293;51.390;12.254;2022-07-05T06:27:06;23.50;66.90
45579;DHT22;31293;51.390;12.254;2022-07-05T06:29:08;23.20;68.50
45579;DHT22;31293;51.390;12.254;2022-07-05T06:31:10;22.70;69.20
45579;DHT22;31293;51.390;12.254;2022-07-05T06:33:11;22.00;71.60
45579;DHT22;31293;51.390;12.254;2022-07-05T06:35:14;21.70;72.70
45579;DHT22;31293;51.390;12.254;2022-07-05T06:37:16;21.50;73.90
45579;DHT22;31293;51.390;12.254;2022-07-05T06:39:17;21.50;74.40
45579;DHT22;31293;51.390;12.254;2022-07-05T06:41:19;21.40;74.70
45579;DHT22;31293;51.390;12.254;2022-07-05T06:43:21;21.70;73.70
45579;DHT22;31293;51.390;12.254;2022-07-05T06:45:23;22.20;72.60
45579;DHT22;31293;51.390;12.254;2022-07-05T06:47:25;22.10;72.40
45579;DHT22;31293;51.390;12.254;2022-07-05T06:49:27;22.40;71.80
45579;DHT22;31293;51.390;12.254;2022-07-05T06:51:29;23.00;70.20
45579;DHT22;31293;51.390;12.254;2022-07-05T06:53:30;23.70;68.40
45579;DHT22;31293;51.390;12.254;2022-07-05T06:55:32;23.70;66.30
45579;DHT22;31293;51.390;12.254;2022-07-05T06:57:34;23.50;67.10
45579;DHT22;31293;51.390;12.254;2022-07-05T06:59:36;23.60;66.20
45579;DHT22;31293;51.390;12.254;2022-07-05T07:01:58;23.50;67.70
45579;DHT22;31293;51.390;12.254;2022-07-05T07:04:19;24.10;65.90
45579;DHT22;31293;51.390;12.254;2022-07-05T07:06:23;24.40;65.00
45579;DHT22;31293;51.390;12.254;2022-07-05T07:08:25;24.60;64.80
45579;DHT22;31293;51.390;12.254;2022-07-05T07:10:45;25.40;62.40
45579;DHT22;31293;51.390;12.254;2022-07-05T07:12:48;24.40;62.50
45579;DHT22;31293;51.390;12.254;2022-07-05T07:14:50;23.80;64.60
45579;DHT22;31293;51.390;12.254;2022-07-05T07:16:51;23.90;65.40
45579;DHT22;31293;51.390;12.254;2022-07-05T07:18:53;23.50;65.70
45579;DHT22;31293;51.390;12.254;2022-07-05T07:21:14;23.10;66.30
45579;DHT22;31293;51.390;12.254;2022-07-05T07:23:16;23.20;65.50
45579;DHT22;31293;51.390;12.254;2022-07-05T07:25:18;23.50;66.20
45579;DHT22;31293;51.390;12.254;2022-07-05T07:27:21;23.90;64.70
45579;DHT22;31293;51.390;12.254;2022-07-05T07:29:23;23.70;64.50
45579;DHT22;31293;51.390;12.254;2022-07-05T07:31:25;23.80;65.30
45579;DHT22;31293;51.390;12.254;2022-07-05T07:33:27;23.70;64.10
45579;DHT22;31293;51.390;12.254;2022-07-05T07:35:45;23.60;64.50
45579;DHT22;31293;51.390;12.254;2022-07-05T07:37:47;23.90;65.00
45579;DHT22;31293;51.390;12.254;2022-07-05T07:39:49;23.60;64.10
45579;DHT22;31293;51.390;12.254;2022-07-05T07:41:51;23.50;65.30
45579;DHT22;31293;51.390;12.254;2022-07-05T07:43:53;23.80;64.50
45579;DHT22;31293;51.390;12.254;2022-07-05T07:45:57;23.90;64.50
45579;DHT22;31293;51.390;12.254;2022-07-05T07:47:59;24.00;64.40
45579;DHT22;31293;51.390;12.254;2022-07-05T07:50:02;24.20;63.10
45579;DHT22;31293;51.390;12.254;2022-07-05T07:52:04;23.80;62.40
45579;DHT22;31293;51.390;12.254;2022-07-05T07:54:06;23.90;64.20
45579;DHT22;31293;51.390;12.254;2022-07-05T07:56:15;23.90;63.10
45579;DHT22;31293;51.390;12.254;2022-07-05T07:58:17;24.00;62.20
45579;DHT22;31293;51.390;12.254;2022-07-05T08:00:19;23.60;62.80
45579;DHT22;31293;51.390;12.254;2022-07-05T08:02:21;23.40;64.00
45579;DHT22;31293;51.390;12.254;2022-07-05T08:04:24;23.60;63.80
45579;DHT22;31293;51.390;12.254;2022-07-05T08:06:26;23.60;63.90
45579;DHT22;31293;51.390;12.254;2022-07-05T08:08:27;23.60;63.90
45579;DHT22;31293;51.390;12.254;2022-07-05T08:10:29;23.80;63.30
45579;DHT22;31293;51.390;12.254;2022-07-05T08:12:31;23.80;63.50
45579;DHT22;31293;51.390;12.254;2022-07-05T08:14:32;23.40;62.90
45579;DHT22;31293;51.390;12.254;2022-07-05T08:16:34;23.20;63.30
45579;DHT22;31293;51.390;12.254;2022-07-05T08:18:36;23.40;63.70
45579;DHT22;31293;51.390;12.254;2022-07-05T08:20:56;23.40;64.50
45579;DHT22;31293;51.390;12.254;2022-07-05T08:23:16;23.70;65.30
45579;DHT22;31293;51.390;12.254;2022-07-05T08:25:18;23.10;64.10
45579;DHT22;31293;51.390;12.254;2022-07-05T08:27:20;22.90;64.50
45579;DHT22;31293;51.390;12.254;2022-07-05T08:29:21;23.00;65.80
45579;DHT22;31293;51.390;12.254;2022-07-05T08:31:25;23.10;65.70
45579;DHT22;31293;51.390;12.254;2022-07-05T08:33:27;23.30;65.40
45579;DHT22;31293;51.390;12.254;2022-07-05T08:35:29;23.30;64.70
45579;DHT22;31293;51.390;12.254;2022-07-05T08:37:31;23.40;64.00
45579;DHT22;31293;51.390;12.254;2022-07-05T08:39:33;23.60;64.80
45579;DHT22;31293;51.390;12.254;2022-07-05T08:41:38;23.90;64.40
45579;DHT22;31293;51.390;12.254;2022-07-05T08:43:45;23.90;63.20
45579;DHT22;31293;51.390;12.254;2022-07-05T08:45:47;23.90;62.60
45579;DHT22;31293;51.390;12.254;2022-07-05T08:47:51;23.80;63.60
45579;DHT22;31293;51.390;12.254;2022-07-05T08:49:53;23.90;64.20
45579;DHT22;31293;51.390;12.254;2022-07-05T08:51:56;24.00;64.10
45579;DHT22;31293;51.390;12.254;2022-07-05T08:53:58;23.50;63.30
45579;DHT22;31293;51.390;12.254;2022-07-05T08:56:00;23.30;63.90
45579;DHT22;31293;51.390;12.254;2022-07-05T08:58:02;23.40;63.60
45579;DHT22;31293;51.390;12.254;2022-07-05T09:00:04;23.20;63.50
45579;DHT22;31293;51.390;12.254;2022-07-05T09:02:12;23.20;64.00
45579;DHT22;31293;51.390;12.254;2022-07-05T09:04:17;23.40;64.10
45579;DHT22;31293;51.390;12.254;2022-07-05T09:06:24;23.50;62.60
45579;DHT22;31293;51.390;12.254;2022-07-05T09:08:26;23.50;62.60
45579;DHT22;31293;51.390;12.254;2022-07-05T09:10:31;23.60;62.10
45579;DHT22;31293;51.390;12.254;2022-07-05T09:12:32;23.70;62.30
45579;DHT22;31293;51.390;12.254;2022-07-05T09:14:34;23.60;61.40
45579;DHT22;31293;51.390;12.254;2022-07-05T09:16:36;23.70;63.80
45579;DHT22;31293;51.390;12.254;2022-07-05T09:18:44;23.50;61.80
45579;DHT22;31293;51.390;12.254;2022-07-05T09:20:46;23.60;61.70
45579;DHT22;31293;51.390;12.254;2022-07-05T09:22:54;23.50;60.40
45579;DHT22;31293;51.390;12.254;2022-07-05T09:24:56;23.60;63.00
45579;DHT22;31293;51.390;12.254;2022-07-05T09:27:04;23.90;62.60
45579;DHT22;31293;51.390;12.254;2022-07-05T09:29:09;24.00;61.30
45579;DHT22;31293;51.390;12.254;2022-07-05T09:31:33;24.20;61.20
45579;DHT22;31293;51.390;12.254;2022-07-05T09:33:48;24.60;60.50
45579;DHT22;31293;51.390;12.254;2022-07-05T09:35:55;24.60;60.00
45579;DHT22;31293;51.390;12.254;2022-07-05T09:38:03;24.70;60.20
45579;DHT22;31293;51.390;12.254;2022-07-05T09:40:05;24.50;59.70
45579;DHT22;31293;51.390;12.254;2022-07-05T09:44:24;24.10;58.40
45579;DHT22;31293;51.390;12.254;2022-07-05T09:46:30;24.20;59.40
45579;DHT22;31293;51.390;12.254;2022-07-05T09:48:33;24.50;58.40
45579;DHT22;31293;51.390;12.254;2022-07-05T09:50:44;24.40;57.90
45579;DHT22;31293;51.390;12.254;2022-07-05T09:53:03;24.60;58.40
45579;DHT22;31293;51.390;12.254;2022-07-05T09:55:10;24.60;58.10
45579;DHT22;31293;51.390;12.254;2022-07-05T09:57:24;24.90;58.30
45579;DHT22;31293;51.390;12.254;2022-07-05T09:59:26;24.80;57.00
45579;DHT22;31293;51.390;12.254;2022-07-05T10:01:29;25.20;58.60
45579;DHT22;31293;51.390;12.254;2022-07-05T10:03:41;25.50;56.80
45579;DHT22;31293;51.390;12.254;2022-07-05T10:05:52;25.70;56.20
45579;DHT22;31293;51.390;12.254;2022-07-05T10:08:01;26.00;56.00
45579;DHT22;31293;51.390;12.254;2022-07-05T10:10:04;26.40;56.80
45579;DHT22;31293;51.390;12.254;2022-07-05T10:12:06;26.90;56.90
45579;DHT22;31293;51.390;12.254;2022-07-05T10:14:15;27.20;56.90
45579;DHT22;31293;51.390;12.254;2022-07-05T10:16:19;27.70;54.00
45579;DHT22;31293;51.390;12.254;2022-07-05T10:18:22;27.30;52.00
45579;DHT22;31293;51.390;12.254;2022-07-05T10:22:39;27.10;52.30
45579;DHT22;31293;51.390;12.254;2022-07-05T10:24:42;26.70;52.40
45579;DHT22;31293;51.390;12.254;2022-07-05T10:26:44;26.40;54.00
45579;DHT22;31293;51.390;12.254;2022-07-05T10:28:50;25.90;53.80
45579;DHT22;31293;51.390;12.254;2022-07-05T10:31:01;25.00;55.50
45579;DHT22;31293;51.390;12.254;2022-07-05T10:33:07;24.70;56.10
45579;DHT22;31293;51.390;12.254;2022-07-05T10:35:08;24.90;57.00
45579;DHT22;31293;51.390;12.254;2022-07-05T10:37:11;25.10;56.50
45579;DHT22;31293;51.390;12.254;2022-07-05T10:39:14;25.40;56.80
45579;DHT22;31293;51.390;12.254;2022-07-05T10:41:20;25.90;54.30
45579;DHT22;31293;51.390;12.254;2022-07-05T10:43:24;26.00;54.10
45579;DHT22;31293;51.390;12.254;2022-07-05T10:45:33;26.10;54.70
45579;DHT22;31293;51.390;12.254;2022-07-05T10:47:35;26.30;53.60
45579;DHT22;31293;51.390;12.254;2022-07-05T10:49:38;26.50;55.50
45579;DHT22;31293;51.390;12.254;2022-07-05T10:51:41;26.70;53.30
45579;DHT22;31293;51.390;12.254;2022-07-05T10:56:11;26.80;51.50
45579;DHT22;31293;51.390;12.254;2022-07-05T11:00:18;26.80;52.40
45579;DHT22;31293;51.390;12.254;2022-07-05T11:02:22;26.90;54.30
45579;DHT22;31293;51.390;12.254;2022-07-05T11:04:25;27.00;54.00
45579;DHT22;31293;51.390;12.254;2022-07-05T11:06:30;26.90;52.60
45579;DHT22;31293;51.390;12.254;2022-07-05T11:11:13;26.30;50.90
45579;DHT22;31293;51.390;12.254;2022-07-05T11:13:37;26.30;52.70
45579;DHT22;31293;51.390;12.254;2022-07-05T11:18:24;27.10;52.80
45579;DHT22;31293;51.390;12.254;2022-07-05T11:20:28;27.70;50.70
45579;DHT22;31293;51.390;12.254;2022-07-05T11:22:30;28.20;51.40
45579;DHT22;31293;51.390;12.254;2022-07-05T11:24:36;28.20;49.00
45579;DHT22;31293;51.390;12.254;2022-07-05T11:26:39;28.00;51.40
45579;DHT22;31293;51.390;12.254;2022-07-05T11:28:42;28.00;48.20
45579;DHT22;31293;51.390;12.254;2022-07-05T11:31:00;28.00;46.90
45579;DHT22;31293;51.390;12.254;2022-07-05T11:33:32;28.30;48.10
45579;DHT22;31293;51.390;12.254;2022-07-05T11:35:36;28.40;47.10
45579;DHT22;31293;51.390;12.254;2022-07-05T11:37:57;28.40;47.90
45579;DHT22;31293;51.390;12.254;2022-07-05T11:42:22;27.90;46.70
45579;DHT22;31293;51.390;12.254;2022-07-05T11:44:24;27.70;46.50
45579;DHT22;31293;51.390;12.254;2022-07-05T11:46:46;27.60;46.80
45579;DHT22;31293;51.390;12.254;2022-07-05T11:48:51;27.40;46.50
45579;DHT22;31293;51.390;12.254;2022-07-05T11:50:53;27.30;48.00
45579;DHT22;31293;51.390;12.254;2022-07-05T11:52:56;27.00;48.80
45579;DHT22;31293;51.390;12.254;2022-07-05T11:55:09;26.80;48.30
45579;DHT22;31293;51.390;12.254;2022-07-05T11:57:12;26.50;47.40
45579;DHT22;31293;51.390;12.254;2022-07-05T11:59:21;26.20;50.40
45579;DHT22;31293;51.390;12.254;2022-07-05T12:01:23;25.90;50.90
45579;DHT22;31293;51.390;12.254;2022-07-05T12:03:25;26.10;51.00
45579;DHT22;31293;51.390;12.254;2022-07-05T12:05:30;25.90;49.90
45579;DHT22;31293;51.390;12.254;2022-07-05T12:07:34;25.90;51.30
45579;DHT22;31293;51.390;12.254;2022-07-05T12:09:35;25.90;51.10
45579;DHT22;31293;51.390;12.254;2022-07-05T12:11:56;26.00;50.50
45579;DHT22;31293;51.390;12.254;2022-07-05T12:14:21;26.10;49.90
45579;DHT22;31293;51.390;12.254;2022-07-05T12:16:23;26.40;50.50
45579;DHT22;31293;51.390;12.254;2022-07-05T12:18:28;26.70;49.70
45579;DHT22;31293;51.390;12.254;2022-07-05T12:20:31;26.80;50.20
45579;DHT22;31293;51.390;12.254;2022-07-05T12:22:35;26.90;51.70
45579;DHT22;31293;51.390;12.254;2022-07-05T12:24:37;27.10;49.10
45579;DHT22;31293;51.390;12.254;2022-07-05T12:26:39;27.20;49.90
45579;DHT22;31293;51.390;12.254;2022-07-05T12:28:41;27.30;48.60
45579;DHT22;31293;51.390;12.254;2022-07-05T12:30:43;27.30;47.90
45579;DHT22;31293;51.390;12.254;2022-07-05T12:34:56;26.20;48.50
45579;DHT22;31293;51.390;12.254;2022-07-05T12:37:05;26.00;48.80
45579;DHT22;31293;51.390;12.254;2022-07-05T12:39:07;26.10;50.30
45579;DHT22;31293;51.390;12.254;2022-07-05T12:41:09;26.40;50.50
45579;DHT22;31293;51.390;12.254;2022-07-05T12:43:15;26.50;50.00
45579;DHT22;31293;51.390;12.254;2022-07-05T12:45:17;26.30;50.50
45579;DHT22;31293;51.390;12.254;2022-07-05T12:47:19;26.30;50.70
45579;DHT22;31293;51.390;12.254;2022-07-05T12:49:21;26.30;49.70
45579;DHT22;31293;51.390;12.254;2022-07-05T12:51:35;26.40;50.20
45579;DHT22;31293;51.390;12.254;2022-07-05T12:53:47;26.90;51.80
45579;DHT22;31293;51.390;12.254;2022-07-05T12:56:10;27.10;49.00
45579;DHT22;31293;51.390;12.254;2022-07-05T12:58:30;27.40;49.50
45579;DHT22;31293;51.390;12.254;2022-07-05T13:00:34;27.60;48.00
45579;DHT22;31293;51.390;12.254;2022-07-05T13:02:46;27.30;47.90
45579;DHT22;31293;51.390;12.254;2022-07-05T13:04:54;27.10;48.20
45579;DHT22;31293;51.390;12.254;2022-07-05T13:07:03;27.00;48.20
45579;DHT22;31293;51.390;12.254;2022-07-05T13:09:31;26.90;48.50
45579;DHT22;31293;51.390;12.254;2022-07-05T13:11:33;27.10;49.80
45579;DHT22;31293;51.390;12.254;2022-07-05T13:13:34;27.50;48.80